sensor_id;sensor_type;location;lat;lon;timestamp;P1;durP1;ratioP1;P2;durP2;ratioP2
7049;SDS011;22263;52.260;10.548;2023-07-20T00:01:13;0.20;;;0.20;;
7049;SDS011;22263;52.260;10.548;2023-07-20T00:03:45;0.20;;;0.20;;
7049;SDS011;22263;52.260;10.548;2023-07-20T00:06:21;0.20;;;0.20;;
7049;SDS011;22263;52.260;10.548;2023-07-20T00:08:54;0.20;;;0.20;;
7049;SDS011;22263;52.260;10.548;2023-07-20T00:11:26;0.20;;;0.20;;
7049;SDS011;22263;52.260;10.548;2023-07-20T00:13:56;0.20;;;0.20;;
7049;SDS011;22263;52.260;10.548;2023-07-20T00:16:26;0.20;;;0.20;;
7049;SDS011;22263;52.260;10.548;2023-07-20T00:18:56;0.30;;;0.30;;
7049;SDS011;22263;52.260;10.548;2023-07-20T00:21:25;0.20;;;0.20;;
7049;SDS011;22263;52.260;10.548;2023-07-20T00:23:58;0.30;;;0.30;;
7049;SDS011;22263;52.260;10.548;2023-07-20T00:26:28;0.30;;;0.30;;
7049;SDS011;22263;52.260;10.548;2023-07-20T00:28:57;0.28;;;0.28;;
7049;SDS011;22263;52.260;10.548;2023-07-20T00:31:27;0.20;;;0.20;;
7049;SDS011;22263;52.260;10.548;2023-07-20T00:33:57;0.30;;;0.30;;
7049;SDS011;22263;52.260;10.548;2023-07-20T00:36:27;0.30;;;0.30;;
7049;SDS011;22263;52.260;10.548;2023-07-20T00:38:59;0.30;;;0.30;;
7049;SDS011;22263;52.260;10.548;2023-07-20T00:41:29;0.30;;;0.30;;
7049;SDS011;22263;52.260;10.548;2023-07-20T00:43:59;0.30;;;0.30;;
7049;SDS011;22263;52.260;10.548;2023-07-20T00:46:29;0.20;;;0.20;;
7049;SDS011;22263;52.260;10.548;2023-07-20T00:48:59;0.20;;;0.20;;
7049;SDS011;22263;52.260;10.548;2023-07-20T00:51:29;0.30;;;0.30;;
7049;SDS011;22263;52.260;10.548;2023-07-20T00:54:03;0.30;;;0.30;;
7049;SDS011;22263;52.260;10.548;2023-07-20T00:56:35;0.25;;;0.25;;
7049;SDS011;22263;52.260;10.548;2023-07-20T00:59:05;0.30;;;0.30;;
7049;SDS011;22263;52.260;10.548;2023-07-20T01:01:35;0.30;;;0.30;;
7049;SDS011;22263;52.260;10.548;2023-07-20T01:04:05;0.20;;;0.20;;
7049;SDS011;22263;52.260;10.548;2023-07-20T01:06:39;0.28;;;0.28;;
7049;SDS011;22263;52.260;10.548;2023-07-20T01:09:19;0.20;;;0.20;;
7049;SDS011;22263;52.260;10.548;2023-07-20T01:11:57;0.30;;;0.30;;
7049;SDS011;22263;52.260;10.548;2023-07-20T01:14:32;0.30;;;0.30;;
7049;SDS011;22263;52.260;10.548;2023-07-20T01:17:04;0.25;;;0.25;;
7049;SDS011;22263;52.260;10.548;2023-07-20T01:19:34;0.30;;;0.30;;
7049;SDS011;22263;52.260;10.548;2023-07-20T01:22:07;0.20;;;0.20;;
7049;SDS011;22263;52.260;10.548;2023-07-20T01:25:01;0.30;;;0.30;;
7049;SDS011;22263;52.260;10.548;2023-07-20T01:27:49;0.20;;;0.20;;
7049;SDS011;22263;52.260;10.548;2023-07-20T01:30:44;0.30;;;0.30;;
7049;SDS011;22263;52.260;10.548;2023-07-20T01:33:24;0.30;;;0.30;;
7049;SDS011;22263;52.260;10.548;2023-07-20T01:35:56;0.30;;;0.30;;
7049;SDS011;22263;52.260;10.548;2023-07-20T01:38:29;0.30;;;0.30;;
7049;SDS011;22263;52.260;10.548;2023-07-20T01:40:59;0.30;;;0.30;;
7049;SDS011;22263;52.260;10.548;2023-07-20T01:43:32;0.30;;;0.30;;
7049;SDS011;22263;52.260;10.548;2023-07-20T01:46:03;0.20;;;0.20;;
7049;SDS011;22263;52.260;10.548;2023-07-20T01:48:36;0.30;;;0.30;;
7049;SDS011;22263;52.260;10.548;2023-07-20T01:51:07;0.30;;;0.30;;
7049;SDS011;22263;52.260;10.548;2023-07-20T01:53:38;0.30;;;0.30;;
7049;SDS011;22263;52.260;10.548;2023-07-20T01:56:09;0.30;;;0.30;;
7049;SDS011;22263;52.260;10.548;2023-07-20T01:58:39;0.25;;;0.25;;
7049;SDS011;22263;52.260;10.548;2023-07-20T02:01:08;0.30;;;0.30;;
7049;SDS011;22263;52.260;10.548;2023-07-20T02:03:41;0.25;;;0.25;;
7049;SDS011;22263;52.260;10.548;2023-07-20T02:06:13;0.22;;;0.22;;
7049;SDS011;22263;52.260;10.548;2023-07-20T02:08:47;0.35;;;0.35;;
7049;SDS011;22263;52.260;10.548;2023-07-20T02:11:17;0.20;;;0.20;;
7049;SDS011;22263;52.260;10.548;2023-07-20T02:13:47;0.30;;;0.30;;
7049;SDS011;22263;52.260;10.548;2023-07-20T02:16:17;0.20;;;0.20;;
7049;SDS011;22263;52.260;10.548;2023-07-20T02:18:50;0.25;;;0.25;;
7049;SDS011;22263;52.260;10.548;2023-07-20T02:21:20;0.20;;;0.20;;
7049;SDS011;22263;52.260;10.548;2023-07-20T02:23:52;0.30;;;0.30;;
7049;SDS011;22263;52.260;10.548;2023-07-20T02:26:22;0.20;;;0.20;;
7049;SDS011;22263;52.260;10.548;2023-07-20T02:28:52;0.30;;;0.30;;
7049;SDS011;22263;52.260;10.548;2023-07-20T02:31:22;0.30;;;0.30;;
7049;SDS011;22263;52.260;10.548;2023-07-20T02:33:55;0.30;;;0.30;;
7049;SDS011;22263;52.260;10.548;2023-07-20T02:36:26;0.30;;;0.30;;
7049;SDS011;22263;52.260;10.548;2023-07-20T02:38:55;0.30;;;0.30;;
7049;SDS011;22263;52.260;10.548;2023-07-20T02:41:26;0.25;;;0.25;;
7049;SDS011;22263;52.260;10.548;2023-07-20T02:43:56;0.30;;;0.30;;
7049;SDS011;22263;52.260;10.548;2023-07-20T02:46:25;0.30;;;0.30;;
7049;SDS011;22263;52.260;10.548;2023-07-20T02:49:00;0.25;;;0.25;;
7049;SDS011;22263;52.260;10.548;2023-07-20T02:51:30;0.30;;;0.30;;
7049;SDS011;22263;52.260;10.548;2023-07-20T02:54:00;0.20;;;0.20;;
7049;SDS011;22263;52.260;10.548;2023-07-20T02:56:30;0.30;;;0.30;;
7049;SDS011;22263;52.260;10.548;2023-07-20T02:59:00;0.30;;;0.30;;
7049;SDS011;22263;52.260;10.548;2023-07-20T03:01:30;0.30;;;0.30;;
7049;SDS011;22263;52.260;10.548;2023-07-20T03:04:03;0.30;;;0.30;;
7049;SDS011;22263;52.260;10.548;2023-07-20T03:06:34;0.30;;;0.30;;
7049;SDS011;22263;52.260;10.548;2023-07-20T03:09:04;0.20;;;0.20;;
7049;SDS011;22263;52.260;10.548;2023-07-20T03:11:36;0.30;;;0.30;;
7049;SDS011;22263;52.260;10.548;2023-07-20T03:14:05;0.20;;;0.20;;
7049;SDS011;22263;52.260;10.548;2023-07-20T03:16:38;0.30;;;0.30;;
7049;SDS011;22263;52.260;10.548;2023-07-20T03:19:10;0.30;;;0.30;;
7049;SDS011;22263;52.260;10.548;2023-07-20T03:21:41;0.30;;;0.30;;
7049;SDS011;22263;52.260;10.548;2023-07-20T03:24:11;0.28;;;0.28;;
7049;SDS011;22263;52.260;10.548;2023-07-20T03:26:40;0.30;;;0.30;;
7049;SDS011;22263;52.260;10.548;2023-07-20T03:29:10;0.30;;;0.30;;
7049;SDS011;22263;52.260;10.548;2023-07-20T03:31:40;0.20;;;0.20;;
7049;SDS011;22263;52.260;10.548;2023-07-20T03:34:12;0.30;;;0.30;;
7049;SDS011;22263;52.260;10.548;2023-07-20T03:36:42;0.20;;;0.20;;
7049;SDS011;22263;52.260;10.548;2023-07-20T03:39:12;0.30;;;0.30;;
7049;SDS011;22263;52.260;10.548;2023-07-20T03:41:41;0.22;;;0.22;;
7049;SDS011;22263;52.260;10.548;2023-07-20T03:44:12;0.20;;;0.20;;
7049;SDS011;22263;52.260;10.548;2023-07-20T03:46:42;0.30;;;0.30;;
7049;SDS011;22263;52.260;10.548;2023-07-20T03:49:15;0.20;;;0.20;;
7049;SDS011;22263;52.260;10.548;2023-07-20T03:51:45;0.30;;;0.30;;
7049;SDS011;22263;52.260;10.548;2023-07-20T03:54:15;0.25;;;0.25;;
7049;SDS011;22263;52.260;10.548;2023-07-20T03:56:45;0.22;;;0.22;;
7049;SDS011;22263;52.260;10.548;2023-07-20T03:59:15;0.20;;;0.20;;
7049;SDS011;22263;52.260;10.548;2023-07-20T04:01:45;0.30;;;0.30;;
7049;SDS011;22263;52.260;10.548;2023-07-20T04:04:17;0.20;;;0.20;;
7049;SDS011;22263;52.260;10.548;2023-07-20T04:06:47;0.30;;;0.30;;
7049;SDS011;22263;52.260;10.548;2023-07-20T04:09:19;0.20;;;0.20;;
7049;SDS011;22263;52.260;10.548;2023-07-20T04:11:49;0.30;;;0.30;;
7049;SDS011;22263;52.260;10.548;2023-07-20T04:14:18;0.30;;;0.30;;
7049;SDS011;22263;52.260;10.548;2023-07-20T04:16:48;0.20;;;0.20;;
7049;SDS011;22263;52.260;10.548;2023-07-20T04:19:20;0.30;;;0.30;;
7049;SDS011;22263;52.260;10.548;2023-07-20T04:21:50;0.30;;;0.30;;
7049;SDS011;22263;52.260;10.548;2023-07-20T04:24:20;0.22;;;0.22;;
7049;SDS011;22263;52.260;10.548;2023-07-20T04:26:50;0.30;;;0.30;;
7049;SDS011;22263;52.260;10.548;2023-07-20T04:29:20;0.30;;;0.30;;
7049;SDS011;22263;52.260;10.548;2023-07-20T04:31:49;0.30;;;0.30;;
7049;SDS011;22263;52.260;10.548;2023-07-20T04:34:22;0.30;;;0.30;;
7049;SDS011;22263;52.260;10.548;2023-07-20T04:36:51;0.30;;;0.30;;
7049;SDS011;22263;52.260;10.548;2023-07-20T04:39:23;0.30;;;0.30;;
7049;SDS011;22263;52.260;10.548;2023-07-20T04:42:03;0.20;;;0.20;;
7049;SDS011;22263;52.260;10.548;2023-07-20T04:44:34;0.20;;;0.20;;
7049;SDS011;22263;52.260;10.548;2023-07-20T04:47:04;0.30;;;0.30;;
7049;SDS011;22263;52.260;10.548;2023-07-20T04:49:40;0.30;;;0.30;;
7049;SDS011;22263;52.260;10.548;2023-07-20T04:52:09;0.30;;;0.30;;
7049;SDS011;22263;52.260;10.548;2023-07-20T04:54:39;0.30;;;0.30;;
7049;SDS011;22263;52.260;10.548;2023-07-20T04:57:11;0.30;;;0.30;;
7049;SDS011;22263;52.260;10.548;2023-07-20T04:59:45;0.20;;;0.20;;
7049;SDS011;22263;52.260;10.548;2023-07-20T05:02:15;0.30;;;0.30;;
7049;SDS011;22263;52.260;10.548;2023-07-20T05:04:48;0.30;;;0.30;;
7049;SDS011;22263;52.260;10.548;2023-07-20T05:07:18;0.30;;;0.30;;
7049;SDS011;22263;52.260;10.548;2023-07-20T05:09:49;0.20;;;0.20;;
7049;SDS011;22263;52.260;10.548;2023-07-20T05:12:18;0.28;;;0.28;;
7049;SDS011;22263;52.260;10.548;2023-07-20T05:14:48;0.20;;;0.20;;
7049;SDS011;22263;52.260;10.548;2023-07-20T05:17:18;0.20;;;0.20;;
7049;SDS011;22263;52.260;10.548;2023-07-20T05:19:50;0.30;;;0.30;;
7049;SDS011;22263;52.260;10.548;2023-07-20T05:22:20;0.30;;;0.30;;
7049;SDS011;22263;52.260;10.548;2023-07-20T05:24:51;0.20;;;0.20;;
7049;SDS011;22263;52.260;10.548;2023-07-20T05:27:21;0.20;;;0.20;;
7049;SDS011;22263;52.260;10.548;2023-07-20T05:29:50;0.30;;;0.30;;
7049;SDS011;22263;52.260;10.548;2023-07-20T05:32:20;0.30;;;0.30;;
7049;SDS011;22263;52.260;10.548;2023-07-20T05:34:53;0.25;;;0.25;;
7049;SDS011;22263;52.260;10.548;2023-07-20T05:37:26;0.30;;;0.30;;
7049;SDS011;22263;52.260;10.548;2023-07-20T05:39:57;0.20;;;0.20;;
7049;SDS011;22263;52.260;10.548;2023-07-20T05:42:27;0.30;;;0.30;;
7049;SDS011;22263;52.260;10.548;2023-07-20T05:44:56;0.30;;;0.30;;
7049;SDS011;22263;52.260;10.548;2023-07-20T05:47:26;0.22;;;0.22;;
7049;SDS011;22263;52.260;10.548;2023-07-20T05:49:58;0.20;;;0.20;;
7049;SDS011;22263;52.260;10.548;2023-07-20T05:52:28;0.20;;;0.20;;
7049;SDS011;22263;52.260;10.548;2023-07-20T05:54:58;0.20;;;0.20;;
7049;SDS011;22263;52.260;10.548;2023-07-20T05:57:27;0.30;;;0.30;;
7049;SDS011;22263;52.260;10.548;2023-07-20T05:59:57;0.25;;;0.25;;
7049;SDS011;22263;52.260;10.548;2023-07-20T06:02:37;0.25;;;0.25;;
7049;SDS011;22263;52.260;10.548;2023-07-20T06:05:10;0.30;;;0.30;;
7049;SDS011;22263;52.260;10.548;2023-07-20T06:07:40;0.20;;;0.20;;
7049;SDS011;22263;52.260;10.548;2023-07-20T06:10:09;0.20;;;0.20;;
7049;SDS011;22263;52.260;10.548;2023-07-20T06:12:39;0.20;;;0.20;;
7049;SDS011;22263;52.260;10.548;2023-07-20T06:15:23;0.20;;;0.20;;
7049;SDS011;22263;52.260;10.548;2023-07-20T06:17:54;0.30;;;0.30;;
7049;SDS011;22263;52.260;10.548;2023-07-20T06:20:27;0.30;;;0.30;;
7049;SDS011;22263;52.260;10.548;2023-07-20T06:22:57;0.30;;;0.30;;
7049;SDS011;22263;52.260;10.548;2023-07-20T06:25:27;0.30;;;0.30;;
7049;SDS011;22263;52.260;10.548;2023-07-20T06:27:56;0.30;;;0.30;;
7049;SDS011;22263;52.260;10.548;2023-07-20T06:30:26;0.30;;;0.30;;
7049;SDS011;22263;52.260;10.548;2023-07-20T06:32:56;0.30;;;0.30;;
7049;SDS011;22263;52.260;10.548;2023-07-20T06:35:29;0.30;;;0.30;;
7049;SDS011;22263;52.260;10.548;2023-07-20T06:37:58;0.20;;;0.20;;
7049;SDS011;22263;52.260;10.548;2023-07-20T06:40:33;0.30;;;0.30;;
7049;SDS011;22263;52.260;10.548;2023-07-20T06:43:03;0.30;;;0.30;;
7049;SDS011;22263;52.260;10.548;2023-07-20T06:45:35;0.30;;;0.30;;
7049;SDS011;22263;52.260;10.548;2023-07-20T06:48:05;0.20;;;0.20;;
7049;SDS011;22263;52.260;10.548;2023-07-20T06:50:38;0.30;;;0.30;;
7049;SDS011;22263;52.260;10.548;2023-07-20T06:53:07;0.30;;;0.30;;
7049;SDS011;22263;52.260;10.548;2023-07-20T06:55:37;0.30;;;0.30;;
7049;SDS011;22263;52.260;10.548;2023-07-20T06:58:08;0.30;;;0.30;;
7049;SDS011;22263;52.260;10.548;2023-07-20T07:00:37;0.28;;;0.28;;
7049;SDS011;22263;52.260;10.548;2023-07-20T07:03:07;0.20;;;0.20;;
7049;SDS011;22263;52.260;10.548;2023-07-20T07:05:43;0.30;;;0.30;;
7049;SDS011;22263;52.260;10.548;2023-07-20T07:08:16;0.30;;;0.30;;
7049;SDS011;22263;52.260;10.548;2023-07-20T07:10:46;0.30;;;0.30;;
7049;SDS011;22263;52.260;10.548;2023-07-20T07:13:16;0.30;;;0.30;;
7049;SDS011;22263;52.260;10.548;2023-07-20T07:15:46;0.30;;;0.30;;
7049;SDS011;22263;52.260;10.548;2023-07-20T07:18:16;0.30;;;0.30;;
7049;SDS011;22263;52.260;10.548;2023-07-20T07:20:53;0.20;;;0.20;;
7049;SDS011;22263;52.260;10.548;2023-07-20T07:23:28;0.30;;;0.30;;
7049;SDS011;22263;52.260;10.548;2023-07-20T07:25:58;0.30;;;0.30;;
7049;SDS011;22263;52.260;10.548;2023-07-20T07:28:28;0.30;;;0.30;;
7049;SDS011;22263;52.260;10.548;2023-07-20T07:30:58;0.30;;;0.30;;
7049;SDS011;22263;52.260;10.548;2023-07-20T07:33:28;0.20;;;0.20;;
7049;SDS011;22263;52.260;10.548;2023-07-20T07:36:00;0.20;;;0.20;;
7049;SDS011;22263;52.260;10.548;2023-07-20T07:38:30;0.20;;;0.20;;
7049;SDS011;22263;52.260;10.548;2023-07-20T07:41:20;0.30;;;0.30;;
7049;SDS011;22263;52.260;10.548;2023-07-20T07:43:50;0.20;;;0.20;;
7049;SDS011;22263;52.260;10.548;2023-07-20T07:46:19;0.30;;;0.30;;
7049;SDS011;22263;52.260;10.548;2023-07-20T07:48:49;0.30;;;0.30;;
7049;SDS011;22263;52.260;10.548;2023-07-20T07:51:22;0.30;;;0.30;;
7049;SDS011;22263;52.260;10.548;2023-07-20T07:53:53;0.30;;;0.30;;
7049;SDS011;22263;52.260;10.548;2023-07-20T07:56:23;0.20;;;0.20;;
7049;SDS011;22263;52.260;10.548;2023-07-20T07:58:53;0.30;;;0.30;;
7049;SDS011;22263;52.260;10.548;2023-07-20T08:01:23;0.20;;;0.20;;
7049;SDS011;22263;52.260;10.548;2023-07-20T08:03:52;0.30;;;0.30;;
7049;SDS011;22263;52.260;10.548;2023-07-20T08:06:25;0.30;;;0.30;;
7049;SDS011;22263;52.260;10.548;2023-07-20T08:08:55;0.20;;;0.20;;
7049;SDS011;22263;52.260;10.548;2023-07-20T08:11:24;0.20;;;0.20;;
7049;SDS011;22263;52.260;10.548;2023-07-20T08:13:57;0.28;;;0.28;;
7049;SDS011;22263;52.260;10.548;2023-07-20T08:16:27;0.20;;;0.20;;
7049;SDS011;22263;52.260;10.548;2023-07-20T08:18:57;0.20;;;0.20;;
7049;SDS011;22263;52.260;10.548;2023-07-20T08:21:29;0.15;;;0.15;;
7049;SDS011;22263;52.260;10.548;2023-07-20T08:23:59;0.20;;;0.20;;
7049;SDS011;22263;52.260;10.548;2023-07-20T08:26:29;0.20;;;0.20;;
7049;SDS011;22263;52.260;10.548;2023-07-20T08:28:58;0.20;;;0.20;;
7049;SDS011;22263;52.260;10.548;2023-07-20T08:31:28;0.20;;;0.20;;
7049;SDS011;22263;52.260;10.548;2023-07-20T08:33:58;0.20;;;0.20;;
7049;SDS011;22263;52.260;10.548;2023-07-20T08:36:44;0.20;;;0.20;;
7049;SDS011;22263;52.260;10.548;2023-07-20T08:39:14;0.20;;;0.20;;
7049;SDS011;22263;52.260;10.548;2023-07-20T08:41:44;0.20;;;0.20;;
7049;SDS011;22263;52.260;10.548;2023-07-20T08:44:13;0.20;;;0.20;;
7049;SDS011;22263;52.260;10.548;2023-07-20T08:46:43;0.10;;;0.10;;
7049;SDS011;22263;52.260;10.548;2023-07-20T08:49:14;0.20;;;0.20;;
7049;SDS011;22263;52.260;10.548;2023-07-20T08:51:49;0.20;;;0.20;;
7049;SDS011;22263;52.260;10.548;2023-07-20T08:54:21;0.20;;;0.20;;
7049;SDS011;22263;52.260;10.548;2023-07-20T08:56:50;0.20;;;0.20;;
7049;SDS011;22263;52.260;10.548;2023-07-20T08:59:20;0.20;;;0.20;;
7049;SDS011;22263;52.260;10.548;2023-07-20T09:01:55;0.10;;;0.10;;
7049;SDS011;22263;52.260;10.548;2023-07-20T09:04:26;0.10;;;0.10;;
7049;SDS011;22263;52.260;10.548;2023-07-20T09:06:59;0.10;;;0.10;;
7049;SDS011;22263;52.260;10.548;2023-07-20T09:09:29;0.10;;;0.10;;
7049;SDS011;22263;52.260;10.548;2023-07-20T09:11:59;0.10;;;0.10;;
7049;SDS011;22263;52.260;10.548;2023-07-20T09:14:29;0.10;;;0.10;;
7049;SDS011;22263;52.260;10.548;2023-07-20T09:17:00;0.10;;;0.10;;
7049;SDS011;22263;52.260;10.548;2023-07-20T09:19:30;0.10;;;0.10;;
7049;SDS011;22263;52.260;10.548;2023-07-20T09:22:02;0.10;;;0.10;;
7049;SDS011;22263;52.260;10.548;2023-07-20T09:24:35;0.10;;;0.10;;
7049;SDS011;22263;52.260;10.548;2023-07-20T09:27:05;0.10;;;0.10;;
7049;SDS011;22263;52.260;10.548;2023-07-20T09:29:42;0.10;;;0.10;;
7049;SDS011;22263;52.260;10.548;2023-07-20T09:32:18;0.10;;;0.10;;
7049;SDS011;22263;52.260;10.548;2023-07-20T09:34:51;0.10;;;0.10;;
7049;SDS011;22263;52.260;10.548;2023-07-20T09:37:24;0.10;;;0.10;;
7049;SDS011;22263;52.260;10.548;2023-07-20T09:39:54;0.05;;;0.05;;
7049;SDS011;22263;52.260;10.548;2023-07-20T09:42:26;0.00;;;0.00;;
7049;SDS011;22263;52.260;10.548;2023-07-20T09:44:59;0.10;;;0.10;;
7049;SDS011;22263;52.260;10.548;2023-07-20T09:47:29;0.10;;;0.10;;
7049;SDS011;22263;52.260;10.548;2023-07-20T09:49:59;0.00;;;0.00;;
7049;SDS011;22263;52.260;10.548;2023-07-20T09:52:35;0.10;;;0.10;;
7049;SDS011;22263;52.260;10.548;2023-07-20T09:55:10;0.00;;;0.00;;
7049;SDS011;22263;52.260;10.548;2023-07-20T09:57:40;0.00;;;0.00;;
7049;SDS011;22263;52.260;10.548;2023-07-20T10:00:10;0.00;;;0.00;;
7049;SDS011;22263;52.260;10.548;2023-07-20T10:02:45;0.10;;;0.10;;
7049;SDS011;22263;52.260;10.548;2023-07-20T10:05:15;0.10;;;0.10;;
7049;SDS011;22263;52.260;10.548;2023-07-20T10:07:50;0.00;;;0.00;;
7049;SDS011;22263;52.260;10.548;2023-07-20T10:10:41;0.08;;;0.08;;
7049;SDS011;22263;52.260;10.548;2023-07-20T10:13:15;0.10;;;0.10;;
7049;SDS011;22263;52.260;10.548;2023-07-20T10:15:49;0.00;;;0.00;;
7049;SDS011;22263;52.260;10.548;2023-07-20T10:18:25;0.10;;;0.10;;
7049;SDS011;22263;52.260;10.548;2023-07-20T10:20:59;0.03;;;0.03;;
7049;SDS011;22263;52.260;10.548;2023-07-20T10:23:36;0.08;;;0.08;;
7049;SDS011;22263;52.260;10.548;2023-07-20T10:26:08;0.10;;;0.10;;
7049;SDS011;22263;52.260;10.548;2023-07-20T10:28:39;0.10;;;0.10;;
7049;SDS011;22263;52.260;10.548;2023-07-20T10:31:10;0.10;;;0.10;;
7049;SDS011;22263;52.260;10.548;2023-07-20T10:33:42;0.10;;;0.10;;
7049;SDS011;22263;52.260;10.548;2023-07-20T10:36:13;0.10;;;0.10;;
7049;SDS011;22263;52.260;10.548;2023-07-20T10:38:53;0.05;;;0.05;;
7049;SDS011;22263;52.260;10.548;2023-07-20T10:41:27;0.10;;;0.10;;
7049;SDS011;22263;52.260;10.548;2023-07-20T10:43:58;0.00;;;0.00;;
7049;SDS011;22263;52.260;10.548;2023-07-20T10:46:34;0.00;;;0.00;;
7049;SDS011;22263;52.260;10.548;2023-07-20T10:49:13;0.00;;;0.00;;
7049;SDS011;22263;52.260;10.548;2023-07-20T10:51:46;0.05;;;0.05;;
7049;SDS011;22263;52.260;10.548;2023-07-20T10:57:23;0.00;;;0.00;;
7049;SDS011;22263;52.260;10.548;2023-07-20T11:00:07;0.05;;;0.05;;
7049;SDS011;22263;52.260;10.548;2023-07-20T11:02:45;0.08;;;0.08;;
7049;SDS011;22263;52.260;10.548;2023-07-20T11:08:09;0.03;;;0.03;;
7049;SDS011;22263;52.260;10.548;2023-07-20T11:10:43;0.10;;;0.10;;
7049;SDS011;22263;52.260;10.548;2023-07-20T11:13:16;0.00;;;0.00;;
7049;SDS011;22263;52.260;10.548;2023-07-20T11:15:52;0.10;;;0.10;;
7049;SDS011;22263;52.260;10.548;2023-07-20T11:18:34;0.00;;;0.00;;
7049;SDS011;22263;52.260;10.548;2023-07-20T11:21:10;0.00;;;0.00;;
7049;SDS011;22263;52.260;10.548;2023-07-20T11:23:41;0.10;;;0.10;;
7049;SDS011;22263;52.260;10.548;2023-07-20T11:26:15;0.10;;;0.10;;
7049;SDS011;22263;52.260;10.548;2023-07-20T11:28:48;0.10;;;0.10;;
7049;SDS011;22263;52.260;10.548;2023-07-20T11:31:18;0.10;;;0.10;;
7049;SDS011;22263;52.260;10.548;2023-07-20T11:33:48;0.10;;;0.10;;
7049;SDS011;22263;52.260;10.548;2023-07-20T11:36:18;0.10;;;0.10;;
7049;SDS011;22263;52.260;10.548;2023-07-20T11:38:51;0.10;;;0.10;;
7049;SDS011;22263;52.260;10.548;2023-07-20T11:41:23;0.10;;;0.10;;
7049;SDS011;22263;52.260;10.548;2023-07-20T11:43:51;0.10;;;0.10;;
7049;SDS011;22263;52.260;10.548;2023-07-20T11:46:21;0.05;;;0.05;;
7049;SDS011;22263;52.260;10.548;2023-07-20T11:48:55;0.00;;;0.00;;
7049;SDS011;22263;52.260;10.548;2023-07-20T11:51:26;0.08;;;0.08;;
7049;SDS011;22263;52.260;10.548;2023-07-20T11:53:57;0.00;;;0.00;;
7049;SDS011;22263;52.260;10.548;2023-07-20T11:56:30;0.08;;;0.08;;
7049;SDS011;22263;52.260;10.548;2023-07-20T11:59:00;0.10;;;0.10;;
7049;SDS011;22263;52.260;10.548;2023-07-20T12:01:30;0.00;;;0.00;;
7049;SDS011;22263;52.260;10.548;2023-07-20T12:04:02;0.00;;;0.00;;
7049;SDS011;22263;52.260;10.548;2023-07-20T12:06:33;0.10;;;0.10;;
7049;SDS011;22263;52.260;10.548;2023-07-20T12:09:03;0.10;;;0.10;;
7049;SDS011;22263;52.260;10.548;2023-07-20T12:11:36;0.10;;;0.10;;
7049;SDS011;22263;52.260;10.548;2023-07-20T12:14:07;0.15;;;0.15;;
7049;SDS011;22263;52.260;10.548;2023-07-20T12:16:43;0.10;;;0.10;;
7049;SDS011;22263;52.260;10.548;2023-07-20T12:19:13;0.10;;;0.10;;
7049;SDS011;22263;52.260;10.548;2023-07-20T12:21:43;0.10;;;0.10;;
7049;SDS011;22263;52.260;10.548;2023-07-20T12:24:12;0.10;;;0.10;;
7049;SDS011;22263;52.260;10.548;2023-07-20T12:26:45;0.10;;;0.10;;
7049;SDS011;22263;52.260;10.548;2023-07-20T12:29:15;0.10;;;0.10;;
7049;SDS011;22263;52.260;10.548;2023-07-20T12:31:44;0.10;;;0.10;;
7049;SDS011;22263;52.260;10.548;2023-07-20T12:34:14;0.10;;;0.10;;
7049;SDS011;22263;52.260;10.548;2023-07-20T12:36:44;0.10;;;0.10;;
7049;SDS011;22263;52.260;10.548;2023-07-20T12:39:14;0.10;;;0.10;;
7049;SDS011;22263;52.260;10.548;2023-07-20T12:41:46;0.10;;;0.10;;
7049;SDS011;22263;52.260;10.548;2023-07-20T12:44:16;0.00;;;0.00;;
7049;SDS011;22263;52.260;10.548;2023-07-20T12:46:45;0.10;;;0.10;;
7049;SDS011;22263;52.260;10.548;2023-07-20T12:49:15;0.10;;;0.10;;
7049;SDS011;22263;52.260;10.548;2023-07-20T12:51:45;0.10;;;0.10;;
7049;SDS011;22263;52.260;10.548;2023-07-20T12:54:15;0.10;;;0.10;;
7049;SDS011;22263;52.260;10.548;2023-07-20T12:56:47;0.10;;;0.10;;
7049;SDS011;22263;52.260;10.548;2023-07-20T12:59:20;0.00;;;0.00;;
7049;SDS011;22263;52.260;10.548;2023-07-20T13:01:50;0.10;;;0.10;;
7049;SDS011;22263;52.260;10.548;2023-07-20T13:04:19;0.00;;;0.00;;
7049;SDS011;22263;52.260;10.548;2023-07-20T13:06:49;0.10;;;0.10;;
7049;SDS011;22263;52.260;10.548;2023-07-20T13:09:19;0.10;;;0.10;;
7049;SDS011;22263;52.260;10.548;2023-07-20T13:11:51;0.10;;;0.10;;
7049;SDS011;22263;52.260;10.548;2023-07-20T13:14:23;0.10;;;0.10;;
7049;SDS011;22263;52.260;10.548;2023-07-20T13:16:53;0.00;;;0.00;;
7049;SDS011;22263;52.260;10.548;2023-07-20T13:19:23;0.00;;;0.00;;
7049;SDS011;22263;52.260;10.548;2023-07-20T13:21:56;0.00;;;0.00;;
7049;SDS011;22263;52.260;10.548;2023-07-20T13:24:26;0.00;;;0.00;;
7049;SDS011;22263;52.260;10.548;2023-07-20T13:26:58;0.00;;;0.00;;
7049;SDS011;22263;52.260;10.548;2023-07-20T13:29:28;0.05;;;0.05;;
7049;SDS011;22263;52.260;10.548;2023-07-20T13:31:58;0.00;;;0.00;;
7049;SDS011;22263;52.260;10.548;2023-07-20T13:34:30;0.10;;;0.10;;
7049;SDS011;22263;52.260;10.548;2023-07-20T13:37:00;0.10;;;0.10;;
7049;SDS011;22263;52.260;10.548;2023-07-20T13:39:31;0.10;;;0.10;;
7049;SDS011;22263;52.260;10.548;2023-07-20T13:42:03;0.00;;;0.00;;
7049;SDS011;22263;52.260;10.548;2023-07-20T13:44:35;0.10;;;0.10;;
7049;SDS011;22263;52.260;10.548;2023-07-20T13:47:05;0.05;;;0.05;;
7049;SDS011;22263;52.260;10.548;2023-07-20T13:49:38;0.10;;;0.10;;
7049;SDS011;22263;52.260;10.548;2023-07-20T13:52:11;0.10;;;0.10;;
7049;SDS011;22263;52.260;10.548;2023-07-20T13:54:43;0.10;;;0.10;;
7049;SDS011;22263;52.260;10.548;2023-07-20T13:57:20;0.10;;;0.10;;
7049;SDS011;22263;52.260;10.548;2023-07-20T13:59:50;0.10;;;0.10;;
7049;SDS011;22263;52.260;10.548;2023-07-20T14:02:20;0.10;;;0.10;;
7049;SDS011;22263;52.260;10.548;2023-07-20T14:04:53;0.10;;;0.10;;
7049;SDS011;22263;52.260;10.548;2023-07-20T14:07:27;0.10;;;0.10;;
7049;SDS011;22263;52.260;10.548;2023-07-20T14:09:57;0.10;;;0.10;;
7049;SDS011;22263;52.260;10.548;2023-07-20T14:12:32;0.10;;;0.10;;
7049;SDS011;22263;52.260;10.548;2023-07-20T14:15:02;0.20;;;0.20;;
7049;SDS011;22263;52.260;10.548;2023-07-20T14:17:33;0.10;;;0.10;;
7049;SDS011;22263;52.260;10.548;2023-07-20T14:20:04;0.10;;;0.10;;
7049;SDS011;22263;52.260;10.548;2023-07-20T14:22:38;0.10;;;0.10;;
7049;SDS011;22263;52.260;10.548;2023-07-20T14:25:08;0.10;;;0.10;;
7049;SDS011;22263;52.260;10.548;2023-07-20T14:27:40;0.10;;;0.10;;
7049;SDS011;22263;52.260;10.548;2023-07-20T14:30:11;0.10;;;0.10;;
7049;SDS011;22263;52.260;10.548;2023-07-20T14:32:41;0.10;;;0.10;;
7049;SDS011;22263;52.260;10.548;2023-07-20T14:35:11;0.10;;;0.10;;
7049;SDS011;22263;52.260;10.548;2023-07-20T14:37:41;0.10;;;0.10;;
7049;SDS011;22263;52.260;10.548;2023-07-20T14:40:13;0.10;;;0.10;;
7049;SDS011;22263;52.260;10.548;2023-07-20T14:42:45;0.10;;;0.10;;
7049;SDS011;22263;52.260;10.548;2023-07-20T14:45:15;0.10;;;0.10;;
7049;SDS011;22263;52.260;10.548;2023-07-20T14:47:45;0.10;;;0.10;;
7049;SDS011;22263;52.260;10.548;2023-07-20T14:50:20;0.10;;;0.10;;
7049;SDS011;22263;52.260;10.548;2023-07-20T14:52:50;0.10;;;0.10;;
7049;SDS011;22263;52.260;10.548;2023-07-20T14:55:21;0.10;;;0.10;;
7049;SDS011;22263;52.260;10.548;2023-07-20T14:57:54;0.10;;;0.10;;
7049;SDS011;22263;52.260;10.548;2023-07-20T15:00:24;0.10;;;0.10;;
7049;SDS011;22263;52.260;10.548;2023-07-20T15:02:54;0.10;;;0.10;;
7049;SDS011;22263;52.260;10.548;2023-07-20T15:05:24;0.10;;;0.10;;
7049;SDS011;22263;52.260;10.548;2023-07-20T15:07:54;0.10;;;0.10;;
7049;SDS011;22263;52.260;10.548;2023-07-20T15:10:23;0.10;;;0.10;;
7049;SDS011;22263;52.260;10.548;2023-07-20T15:12:56;0.10;;;0.10;;
7049;SDS011;22263;52.260;10.548;2023-07-20T15:15:25;0.10;;;0.10;;
7049;SDS011;22263;52.260;10.548;2023-07-20T15:17:55;0.10;;;0.10;;
7049;SDS011;22263;52.260;10.548;2023-07-20T15:20:25;0.10;;;0.10;;